sensor_id;sensor_type;location;lat;lon;timestamp;P1;durP1;ratioP1;P2;durP2;ratioP2
35312;SDS011;21425;50.454;30.466;2022-08-21T00:02:16;21.35;;;9.27;;
35312;SDS011;21425;50.454;30.466;2022-08-21T00:04:46;25.30;;;8.65;;
35312;SDS011;21425;50.454;30.466;2022-08-21T00:07:12;32.05;;;9.63;;
35312;SDS011;21425;50.454;30.466;2022-08-21T00:09:39;32.40;;;9.90;;
35312;SDS011;21425;50.454;30.466;2022-08-21T00:12:04;36.70;;;9.40;;
35312;SDS011;21425;50.454;30.466;2022-08-21T00:14:31;24.00;;;8.65;;
35312;SDS011;21425;50.454;30.466;2022-08-21T00:16:57;26.95;;;8.95;;
35312;SDS011;21425;50.454;30.466;2022-08-21T00:19:23;24.85;;;9.23;;
35312;SDS011;21425;50.454;30.466;2022-08-21T00:21:50;37.75;;;10.48;;
35312;SDS011;21425;50.454;30.466;2022-08-21T00:24:17;25.55;;;9.50;;
35312;SDS011;21425;50.454;30.466;2022-08-21T00:26:43;26.00;;;8.55;;
35312;SDS011;21425;50.454;30.466;2022-08-21T00:29:10;34.25;;;8.93;;
35312;SDS011;21425;50.454;30.466;2022-08-21T00:31:35;20.98;;;8.77;;
35312;SDS011;21425;50.454;30.466;2022-08-21T00:34:01;29.15;;;9.38;;
35312;SDS011;21425;50.454;30.466;2022-08-21T00:36:28;23.45;;;8.75;;
35312;SDS011;21425;50.454;30.466;2022-08-21T00:38:56;24.40;;;8.68;;
35312;SDS011;21425;50.454;30.466;2022-08-21T00:41:22;34.55;;;9.98;;
35312;SDS011;21425;50.454;30.466;2022-08-21T00:43:48;31.42;;;8.68;;
35312;SDS011;21425;50.454;30.466;2022-08-21T00:46:14;43.70;;;10.13;;
35312;SDS011;21425;50.454;30.466;2022-08-21T00:48:40;32.70;;;8.98;;
35312;SDS011;21425;50.454;30.466;2022-08-21T00:51:17;28.88;;;8.45;;
35312;SDS011;21425;50.454;30.466;2022-08-21T00:53:48;26.02;;;8.57;;
35312;SDS011;21425;50.454;30.466;2022-08-21T00:56:18;26.10;;;8.77;;
35312;SDS011;21425;50.454;30.466;2022-08-21T00:58:46;29.13;;;8.55;;
35312;SDS011;21425;50.454;30.466;2022-08-21T01:01:12;28.20;;;8.98;;
35312;SDS011;21425;50.454;30.466;2022-08-21T01:03:38;23.00;;;8.23;;
35312;SDS011;21425;50.454;30.466;2022-08-21T01:06:04;29.77;;;7.78;;
35312;SDS011;21425;50.454;30.466;2022-08-21T01:08:31;24.60;;;7.63;;
35312;SDS011;21425;50.454;30.466;2022-08-21T01:10:58;22.50;;;8.20;;
35312;SDS011;21425;50.454;30.466;2022-08-21T01:13:25;32.72;;;8.50;;
35312;SDS011;21425;50.454;30.466;2022-08-21T01:15:53;27.00;;;8.07;;
35312;SDS011;21425;50.454;30.466;2022-08-21T01:18:19;33.63;;;8.88;;
35312;SDS011;21425;50.454;30.466;2022-08-21T01:23:30;26.38;;;8.27;;
35312;SDS011;21425;50.454;30.466;2022-08-21T01:25:56;28.05;;;7.53;;
35312;SDS011;21425;50.454;30.466;2022-08-21T01:28:22;21.88;;;7.32;;
35312;SDS011;21425;50.454;30.466;2022-08-21T01:30:49;24.30;;;7.55;;
35312;SDS011;21425;50.454;30.466;2022-08-21T01:33:17;28.80;;;7.47;;
35312;SDS011;21425;50.454;30.466;2022-08-21T01:35:45;27.13;;;8.40;;
35312;SDS011;21425;50.454;30.466;2022-08-21T01:38:10;28.08;;;8.20;;
35312;SDS011;21425;50.454;30.466;2022-08-21T01:40:37;26.13;;;8.07;;
35312;SDS011;21425;50.454;30.466;2022-08-21T01:43:02;25.10;;;8.45;;
35312;SDS011;21425;50.454;30.466;2022-08-21T01:45:28;27.85;;;8.65;;
35312;SDS011;21425;50.454;30.466;2022-08-21T01:47:54;32.95;;;8.57;;
35312;SDS011;21425;50.454;30.466;2022-08-21T01:50:20;27.02;;;8.77;;
35312;SDS011;21425;50.454;30.466;2022-08-21T01:52:46;27.38;;;8.45;;
35312;SDS011;21425;50.454;30.466;2022-08-21T01:55:12;39.03;;;9.32;;
35312;SDS011;21425;50.454;30.466;2022-08-21T01:57:39;34.75;;;9.23;;
35312;SDS011;21425;50.454;30.466;2022-08-21T02:00:06;21.73;;;8.23;;
35312;SDS011;21425;50.454;30.466;2022-08-21T02:02:35;29.67;;;8.85;;
35312;SDS011;21425;50.454;30.466;2022-08-21T02:05:02;31.55;;;8.10;;
35312;SDS011;21425;50.454;30.466;2022-08-21T02:07:34;36.22;;;8.35;;
35312;SDS011;21425;50.454;30.466;2022-08-21T02:10:22;30.20;;;8.40;;
35312;SDS011;21425;50.454;30.466;2022-08-21T02:12:51;24.58;;;8.93;;
35312;SDS011;21425;50.454;30.466;2022-08-21T02:15:17;23.77;;;8.95;;
35312;SDS011;21425;50.454;30.466;2022-08-21T02:17:48;25.67;;;8.35;;
35312;SDS011;21425;50.454;30.466;2022-08-21T02:20:21;30.33;;;8.85;;
35312;SDS011;21425;50.454;30.466;2022-08-21T02:22:48;25.60;;;8.30;;
35312;SDS011;21425;50.454;30.466;2022-08-21T02:25:14;19.92;;;7.35;;
35312;SDS011;21425;50.454;30.466;2022-08-21T02:27:41;32.05;;;8.55;;
35312;SDS011;21425;50.454;30.466;2022-08-21T02:30:10;37.22;;;8.60;;
35312;SDS011;21425;50.454;30.466;2022-08-21T02:32:39;35.42;;;8.38;;
35312;SDS011;21425;50.454;30.466;2022-08-21T02:35:05;21.90;;;7.95;;
35312;SDS011;21425;50.454;30.466;2022-08-21T02:37:31;23.88;;;8.57;;
35312;SDS011;21425;50.454;30.466;2022-08-21T02:39:58;28.83;;;7.53;;
35312;SDS011;21425;50.454;30.466;2022-08-21T02:42:25;28.80;;;8.70;;
35312;SDS011;21425;50.454;30.466;2022-08-21T02:44:50;36.15;;;8.38;;
35312;SDS011;21425;50.454;30.466;2022-08-21T02:47:16;31.40;;;7.22;;
35312;SDS011;21425;50.454;30.466;2022-08-21T02:49:42;22.90;;;7.32;;
35312;SDS011;21425;50.454;30.466;2022-08-21T02:52:07;30.48;;;8.23;;
35312;SDS011;21425;50.454;30.466;2022-08-21T02:54:33;35.08;;;7.90;;
35312;SDS011;21425;50.454;30.466;2022-08-21T02:56:58;21.98;;;6.32;;
35312;SDS011;21425;50.454;30.466;2022-08-21T02:59:24;23.55;;;7.03;;
35312;SDS011;21425;50.454;30.466;2022-08-21T03:01:50;29.17;;;7.70;;
35312;SDS011;21425;50.454;30.466;2022-08-21T03:04:15;36.35;;;7.70;;
35312;SDS011;21425;50.454;30.466;2022-08-21T03:06:41;19.90;;;6.35;;
35312;SDS011;21425;50.454;30.466;2022-08-21T03:09:07;21.65;;;7.43;;
35312;SDS011;21425;50.454;30.466;2022-08-21T03:11:33;28.73;;;6.93;;
35312;SDS011;21425;50.454;30.466;2022-08-21T03:14:01;29.00;;;8.38;;
35312;SDS011;21425;50.454;30.466;2022-08-21T03:16:26;20.20;;;8.23;;
35312;SDS011;21425;50.454;30.466;2022-08-21T03:18:52;30.98;;;8.68;;
35312;SDS011;21425;50.454;30.466;2022-08-21T03:21:18;19.05;;;8.00;;
35312;SDS011;21425;50.454;30.466;2022-08-21T03:23:43;26.00;;;8.02;;
35312;SDS011;21425;50.454;30.466;2022-08-21T03:26:09;29.15;;;7.97;;
35312;SDS011;21425;50.454;30.466;2022-08-21T03:28:36;28.25;;;8.95;;
35312;SDS011;21425;50.454;30.466;2022-08-21T03:31:02;29.13;;;7.68;;
35312;SDS011;21425;50.454;30.466;2022-08-21T03:33:27;25.83;;;7.68;;
35312;SDS011;21425;50.454;30.466;2022-08-21T03:35:58;29.83;;;7.88;;
35312;SDS011;21425;50.454;30.466;2022-08-21T03:38:27;27.90;;;7.85;;
35312;SDS011;21425;50.454;30.466;2022-08-21T03:40:54;29.10;;;8.05;;
35312;SDS011;21425;50.454;30.466;2022-08-21T03:43:19;24.50;;;7.40;;
35312;SDS011;21425;50.454;30.466;2022-08-21T03:45:45;26.13;;;7.90;;
35312;SDS011;21425;50.454;30.466;2022-08-21T03:48:11;20.65;;;7.65;;
35312;SDS011;21425;50.454;30.466;2022-08-21T03:50:38;26.85;;;7.38;;
35312;SDS011;21425;50.454;30.466;2022-08-21T03:53:07;25.92;;;7.03;;
35312;SDS011;21425;50.454;30.466;2022-08-21T03:55:34;23.05;;;7.60;;
35312;SDS011;21425;50.454;30.466;2022-08-21T03:58:00;21.25;;;7.45;;
35312;SDS011;21425;50.454;30.466;2022-08-21T04:00:26;22.92;;;6.88;;
35312;SDS011;21425;50.454;30.466;2022-08-21T04:02:52;24.95;;;8.65;;
35312;SDS011;21425;50.454;30.466;2022-08-21T04:05:18;18.73;;;7.72;;
35312;SDS011;21425;50.454;30.466;2022-08-21T04:07:56;25.67;;;7.93;;
35312;SDS011;21425;50.454;30.466;2022-08-21T04:10:23;27.27;;;7.88;;
35312;SDS011;21425;50.454;30.466;2022-08-21T04:12:50;26.17;;;7.45;;
35312;SDS011;21425;50.454;30.466;2022-08-21T04:15:17;28.38;;;7.57;;
35312;SDS011;21425;50.454;30.466;2022-08-21T04:17:43;22.25;;;6.10;;
35312;SDS011;21425;50.454;30.466;2022-08-21T04:20:09;21.40;;;6.43;;
35312;SDS011;21425;50.454;30.466;2022-08-21T04:22:34;19.08;;;5.88;;
35312;SDS011;21425;50.454;30.466;2022-08-21T04:25:00;17.92;;;6.15;;
35312;SDS011;21425;50.454;30.466;2022-08-21T04:27:26;24.90;;;5.60;;
35312;SDS011;21425;50.454;30.466;2022-08-21T04:29:52;16.92;;;5.90;;
35312;SDS011;21425;50.454;30.466;2022-08-21T04:32:24;30.95;;;5.82;;
35312;SDS011;21425;50.454;30.466;2022-08-21T04:34:50;24.60;;;5.18;;
35312;SDS011;21425;50.454;30.466;2022-08-21T04:37:15;21.10;;;5.55;;
35312;SDS011;21425;50.454;30.466;2022-08-21T04:39:41;25.85;;;6.28;;
35312;SDS011;21425;50.454;30.466;2022-08-21T04:42:07;26.02;;;6.15;;
35312;SDS011;21425;50.454;30.466;2022-08-21T04:44:34;23.27;;;5.28;;
35312;SDS011;21425;50.454;30.466;2022-08-21T04:46:59;14.63;;;4.95;;
35312;SDS011;21425;50.454;30.466;2022-08-21T04:49:26;22.15;;;5.20;;
35312;SDS011;21425;50.454;30.466;2022-08-21T04:51:51;24.17;;;6.00;;
35312;SDS011;21425;50.454;30.466;2022-08-21T04:54:19;21.42;;;5.28;;
35312;SDS011;21425;50.454;30.466;2022-08-21T04:56:51;23.90;;;5.60;;
35312;SDS011;21425;50.454;30.466;2022-08-21T05:01:51;30.65;;;5.45;;
35312;SDS011;21425;50.454;30.466;2022-08-21T05:04:21;23.38;;;5.78;;
35312;SDS011;21425;50.454;30.466;2022-08-21T05:06:49;23.73;;;6.13;;
35312;SDS011;21425;50.454;30.466;2022-08-21T05:09:17;32.03;;;5.80;;
35312;SDS011;21425;50.454;30.466;2022-08-21T05:11:44;18.42;;;5.38;;
35312;SDS011;21425;50.454;30.466;2022-08-21T05:14:10;28.30;;;5.45;;
35312;SDS011;21425;50.454;30.466;2022-08-21T05:16:37;29.33;;;5.90;;
35312;SDS011;21425;50.454;30.466;2022-08-21T05:19:03;26.83;;;4.95;;
35312;SDS011;21425;50.454;30.466;2022-08-21T05:21:29;26.95;;;5.68;;
35312;SDS011;21425;50.454;30.466;2022-08-21T05:23:55;27.77;;;6.03;;
35312;SDS011;21425;50.454;30.466;2022-08-21T05:26:20;22.75;;;5.30;;
35312;SDS011;21425;50.454;30.466;2022-08-21T05:28:46;18.02;;;5.22;;
35312;SDS011;21425;50.454;30.466;2022-08-21T05:31:12;29.65;;;6.15;;
35312;SDS011;21425;50.454;30.466;2022-08-21T05:33:38;18.85;;;4.90;;
35312;SDS011;21425;50.454;30.466;2022-08-21T05:36:04;19.15;;;4.70;;
35312;SDS011;21425;50.454;30.466;2022-08-21T05:38:29;27.40;;;5.63;;
35312;SDS011;21425;50.454;30.466;2022-08-21T05:40:55;26.55;;;5.30;;
35312;SDS011;21425;50.454;30.466;2022-08-21T05:43:20;22.38;;;5.15;;
35312;SDS011;21425;50.454;30.466;2022-08-21T05:45:46;16.65;;;5.15;;
35312;SDS011;21425;50.454;30.466;2022-08-21T05:48:19;28.90;;;5.45;;
35312;SDS011;21425;50.454;30.466;2022-08-21T05:50:48;20.73;;;4.97;;
35312;SDS011;21425;50.454;30.466;2022-08-21T05:53:14;31.42;;;5.60;;
35312;SDS011;21425;50.454;30.466;2022-08-21T05:55:41;17.67;;;5.07;;
35312;SDS011;21425;50.454;30.466;2022-08-21T05:58:07;29.08;;;5.15;;
35312;SDS011;21425;50.454;30.466;2022-08-21T06:00:33;24.80;;;6.30;;
35312;SDS011;21425;50.454;30.466;2022-08-21T06:02:59;26.98;;;5.38;;
35312;SDS011;21425;50.454;30.466;2022-08-21T06:05:25;28.45;;;5.88;;
35312;SDS011;21425;50.454;30.466;2022-08-21T06:07:51;20.27;;;4.85;;
35312;SDS011;21425;50.454;30.466;2022-08-21T06:10:17;18.30;;;4.78;;
35312;SDS011;21425;50.454;30.466;2022-08-21T06:12:43;18.33;;;5.45;;
35312;SDS011;21425;50.454;30.466;2022-08-21T06:15:08;22.63;;;4.88;;
35312;SDS011;21425;50.454;30.466;2022-08-21T06:17:34;25.00;;;5.55;;
35312;SDS011;21425;50.454;30.466;2022-08-21T06:20:00;24.33;;;5.93;;
35312;SDS011;21425;50.454;30.466;2022-08-21T06:22:25;26.92;;;5.43;;
35312;SDS011;21425;50.454;30.466;2022-08-21T06:24:51;28.55;;;5.55;;
35312;SDS011;21425;50.454;30.466;2022-08-21T06:27:17;18.75;;;5.10;;
35312;SDS011;21425;50.454;30.466;2022-08-21T06:29:43;27.25;;;6.32;;
35312;SDS011;21425;50.454;30.466;2022-08-21T06:32:10;24.55;;;5.13;;
35312;SDS011;21425;50.454;30.466;2022-08-21T06:34:37;28.88;;;5.82;;
35312;SDS011;21425;50.454;30.466;2022-08-21T06:37:04;24.88;;;5.82;;
35312;SDS011;21425;50.454;30.466;2022-08-21T06:39:30;20.38;;;4.50;;
35312;SDS011;21425;50.454;30.466;2022-08-21T06:41:56;28.83;;;5.35;;
35312;SDS011;21425;50.454;30.466;2022-08-21T06:44:22;28.25;;;5.40;;
35312;SDS011;21425;50.454;30.466;2022-08-21T06:46:47;29.63;;;6.40;;
35312;SDS011;21425;50.454;30.466;2022-08-21T06:49:13;24.52;;;5.90;;
35312;SDS011;21425;50.454;30.466;2022-08-21T06:51:39;16.27;;;5.28;;
35312;SDS011;21425;50.454;30.466;2022-08-21T06:54:05;28.27;;;5.88;;
35312;SDS011;21425;50.454;30.466;2022-08-21T06:56:30;25.35;;;4.80;;
35312;SDS011;21425;50.454;30.466;2022-08-21T06:58:58;22.35;;;5.35;;
35312;SDS011;21425;50.454;30.466;2022-08-21T07:01:24;21.50;;;5.20;;
35312;SDS011;21425;50.454;30.466;2022-08-21T07:03:50;30.20;;;5.55;;
35312;SDS011;21425;50.454;30.466;2022-08-21T07:06:16;33.80;;;5.47;;
35312;SDS011;21425;50.454;30.466;2022-08-21T07:08:42;21.15;;;5.63;;
35312;SDS011;21425;50.454;30.466;2022-08-21T07:11:12;29.55;;;6.65;;
35312;SDS011;21425;50.454;30.466;2022-08-21T07:13:43;21.63;;;5.57;;
35312;SDS011;21425;50.454;30.466;2022-08-21T07:16:09;24.50;;;5.72;;
35312;SDS011;21425;50.454;30.466;2022-08-21T07:18:35;31.42;;;6.18;;
35312;SDS011;21425;50.454;30.466;2022-08-21T07:21:02;22.63;;;5.63;;
35312;SDS011;21425;50.454;30.466;2022-08-21T07:23:34;22.88;;;6.03;;
35312;SDS011;21425;50.454;30.466;2022-08-21T07:26:03;26.90;;;6.05;;
35312;SDS011;21425;50.454;30.466;2022-08-21T07:28:29;32.58;;;6.28;;
35312;SDS011;21425;50.454;30.466;2022-08-21T07:30:56;22.27;;;5.70;;
35312;SDS011;21425;50.454;30.466;2022-08-21T07:33:23;19.50;;;5.50;;
35312;SDS011;21425;50.454;30.466;2022-08-21T07:35:51;22.85;;;6.20;;
35312;SDS011;21425;50.454;30.466;2022-08-21T07:38:17;24.38;;;5.85;;
35312;SDS011;21425;50.454;30.466;2022-08-21T07:40:44;23.90;;;6.07;;
35312;SDS011;21425;50.454;30.466;2022-08-21T07:43:10;25.42;;;6.30;;
35312;SDS011;21425;50.454;30.466;2022-08-21T07:45:36;20.70;;;5.60;;
35312;SDS011;21425;50.454;30.466;2022-08-21T07:48:02;18.52;;;5.53;;
35312;SDS011;21425;50.454;30.466;2022-08-21T07:50:28;24.45;;;5.97;;
35312;SDS011;21425;50.454;30.466;2022-08-21T07:52:54;18.70;;;5.70;;
35312;SDS011;21425;50.454;30.466;2022-08-21T07:55:20;25.63;;;5.95;;
35312;SDS011;21425;50.454;30.466;2022-08-21T07:57:47;20.52;;;5.63;;
35312;SDS011;21425;50.454;30.466;2022-08-21T08:00:15;25.70;;;6.32;;
35312;SDS011;21425;50.454;30.466;2022-08-21T08:02:44;19.17;;;5.22;;
35312;SDS011;21425;50.454;30.466;2022-08-21T08:05:14;22.75;;;6.07;;
35312;SDS011;21425;50.454;30.466;2022-08-21T08:07:41;23.73;;;5.35;;
35312;SDS011;21425;50.454;30.466;2022-08-21T08:10:06;18.67;;;5.13;;
35312;SDS011;21425;50.454;30.466;2022-08-21T08:12:37;26.10;;;6.10;;
35312;SDS011;21425;50.454;30.466;2022-08-21T08:15:05;33.90;;;6.72;;
35312;SDS011;21425;50.454;30.466;2022-08-21T08:17:33;31.52;;;6.88;;
35312;SDS011;21425;50.454;30.466;2022-08-21T08:19:59;25.30;;;5.68;;
35312;SDS011;21425;50.454;30.466;2022-08-21T08:22:26;17.52;;;5.97;;
35312;SDS011;21425;50.454;30.466;2022-08-21T08:24:52;23.40;;;5.45;;
35312;SDS011;21425;50.454;30.466;2022-08-21T08:27:18;27.60;;;6.25;;
35312;SDS011;21425;50.454;30.466;2022-08-21T08:29:44;33.70;;;5.97;;
35312;SDS011;21425;50.454;30.466;2022-08-21T08:32:10;23.95;;;6.00;;
35312;SDS011;21425;50.454;30.466;2022-08-21T08:34:37;32.95;;;6.40;;
35312;SDS011;21425;50.454;30.466;2022-08-21T08:37:04;24.25;;;5.93;;
35312;SDS011;21425;50.454;30.466;2022-08-21T08:39:31;32.45;;;5.80;;
35312;SDS011;21425;50.454;30.466;2022-08-21T08:44:38;26.70;;;6.50;;
35312;SDS011;21425;50.454;30.466;2022-08-21T08:47:03;26.05;;;5.72;;
35312;SDS011;21425;50.454;30.466;2022-08-21T08:49:51;30.45;;;5.28;;
35312;SDS011;21425;50.454;30.466;2022-08-21T08:52:22;33.38;;;5.88;;
35312;SDS011;21425;50.454;30.466;2022-08-21T08:55:12;22.58;;;5.20;;
35312;SDS011;21425;50.454;30.466;2022-08-21T08:57:42;29.15;;;5.75;;
35312;SDS011;21425;50.454;30.466;2022-08-21T09:00:14;25.50;;;5.90;;
35312;SDS011;21425;50.454;30.466;2022-08-21T09:02:42;33.75;;;6.60;;
35312;SDS011;21425;50.454;30.466;2022-08-21T09:05:12;35.78;;;5.50;;
35312;SDS011;21425;50.454;30.466;2022-08-21T09:07:53;21.67;;;5.57;;
35312;SDS011;21425;50.454;30.466;2022-08-21T09:26:50;23.25;;;5.07;;
35312;SDS011;21425;50.454;30.466;2022-08-21T09:29:24;33.53;;;6.85;;
35312;SDS011;21425;50.454;30.466;2022-08-21T09:31:54;23.95;;;5.88;;
35312;SDS011;21425;50.454;30.466;2022-08-21T09:34:24;25.40;;;4.50;;
35312;SDS011;21425;50.454;30.466;2022-08-21T09:36:56;32.05;;;5.20;;
35312;SDS011;21425;50.454;30.466;2022-08-21T09:39:27;22.35;;;5.38;;
35312;SDS011;21425;50.454;30.466;2022-08-21T09:41:56;27.38;;;6.47;;
35312;SDS011;21425;50.454;30.466;2022-08-21T09:44:25;25.30;;;5.47;;
35312;SDS011;21425;50.454;30.466;2022-08-21T09:46:53;22.48;;;4.80;;
35312;SDS011;21425;50.454;30.466;2022-08-21T09:49:33;22.63;;;5.13;;
35312;SDS011;21425;50.454;30.466;2022-08-21T09:52:00;29.23;;;4.97;;
35312;SDS011;21425;50.454;30.466;2022-08-21T09:54:30;30.02;;;5.18;;
35312;SDS011;21425;50.454;30.466;2022-08-21T09:59:52;31.65;;;5.28;;
35312;SDS011;21425;50.454;30.466;2022-08-21T10:02:21;29.27;;;5.15;;
35312;SDS011;21425;50.454;30.466;2022-08-21T10:04:57;27.80;;;4.82;;
35312;SDS011;21425;50.454;30.466;2022-08-21T10:07:25;23.85;;;5.57;;
35312;SDS011;21425;50.454;30.466;2022-08-21T10:10:26;27.30;;;5.63;;
35312;SDS011;21425;50.454;30.466;2022-08-21T10:13:09;30.52;;;5.45;;
35312;SDS011;21425;50.454;30.466;2022-08-21T10:21:52;33.00;;;5.43;;
35312;SDS011;21425;50.454;30.466;2022-08-21T10:29:51;24.13;;;4.97;;
35312;SDS011;21425;50.454;30.466;2022-08-21T10:32:33;21.83;;;3.65;;
35312;SDS011;21425;50.454;30.466;2022-08-21T10:37:54;17.05;;;3.63;;
35312;SDS011;21425;50.454;30.466;2022-08-21T10:48:50;27.30;;;4.60;;
35312;SDS011;21425;50.454;30.466;2022-08-21T10:57:11;27.92;;;4.60;;
35312;SDS011;21425;50.454;30.466;2022-08-21T10:59:47;15.07;;;3.67;;
35312;SDS011;21425;50.454;30.466;2022-08-21T11:02:42;26.23;;;4.32;;
35312;SDS011;21425;50.454;30.466;2022-08-21T11:05:31;24.17;;;4.45;;
35312;SDS011;21425;50.454;30.466;2022-08-21T11:10:39;16.25;;;3.97;;
35312;SDS011;21425;50.454;30.466;2022-08-21T11:13:17;21.75;;;4.38;;
35312;SDS011;21425;50.454;30.466;2022-08-21T11:18:39;20.85;;;3.08;;
35312;SDS011;21425;50.454;30.466;2022-08-21T11:29:29;24.45;;;4.82;;
35312;SDS011;21425;50.454;30.466;2022-08-21T11:37:21;21.38;;;3.95;;
35312;SDS011;21425;50.454;30.466;2022-08-21T11:48:16;33.83;;;4.65;;
35312;SDS011;21425;50.454;30.466;2022-08-21T11:50:47;16.20;;;4.10;;
35312;SDS011;21425;50.454;30.466;2022-08-21T11:53:16;18.63;;;3.78;;
35312;SDS011;21425;50.454;30.466;2022-08-21T11:56:33;22.88;;;4.47;;
35312;SDS011;21425;50.454;30.466;2022-08-21T11:58:45;20.50;;;4.13;;
35312;SDS011;21425;50.454;30.466;2022-08-21T12:01:16;25.90;;;4.40;;
35312;SDS011;21425;50.454;30.466;2022-08-21T12:03:54;28.38;;;3.83;;
35312;SDS011;21425;50.454;30.466;2022-08-21T12:06:30;29.10;;;4.38;;
35312;SDS011;21425;50.454;30.466;2022-08-21T12:09:00;26.70;;;4.10;;
35312;SDS011;21425;50.454;30.466;2022-08-21T12:11:29;20.55;;;3.78;;
35312;SDS011;21425;50.454;30.466;2022-08-21T12:14:11;22.33;;;3.75;;
35312;SDS011;21425;50.454;30.466;2022-08-21T12:16:43;17.75;;;3.75;;
35312;SDS011;21425;50.454;30.466;2022-08-21T12:19:13;19.23;;;4.38;;
35312;SDS011;21425;50.454;30.466;2022-08-21T12:22:14;17.73;;;4.03;;
35312;SDS011;21425;50.454;30.466;2022-08-21T12:24:41;29.02;;;4.55;;
35312;SDS011;21425;50.454;30.466;2022-08-21T12:27:29;19.20;;;4.60;;
35312;SDS011;21425;50.454;30.466;2022-08-21T12:30:06;30.42;;;5.75;;
35312;SDS011;21425;50.454;30.466;2022-08-21T12:32:45;27.75;;;4.13;;
35312;SDS011;21425;50.454;30.466;2022-08-21T12:35:21;20.33;;;3.97;;
35312;SDS011;21425;50.454;30.466;2022-08-21T12:38:07;29.75;;;4.25;;
35312;SDS011;21425;50.454;30.466;2022-08-21T12:40:41;25.27;;;4.50;;
35312;SDS011;21425;50.454;30.466;2022-08-21T12:43:15;18.25;;;3.95;;
35312;SDS011;21425;50.454;30.466;2022-08-21T12:45:52;21.73;;;4.07;;
35312;SDS011;21425;50.454;30.466;2022-08-21T12:48:21;18.40;;;3.90;;
35312;SDS011;21425;50.454;30.466;2022-08-21T12:51:09;24.45;;;4.22;;
35312;SDS011;21425;50.454;30.466;2022-08-21T12:56:14;25.05;;;4.10;;
35312;SDS011;21425;50.454;30.466;2022-08-21T12:58:47;19.55;;;4.03;;
35312;SDS011;21425;50.454;30.466;2022-08-21T13:01:23;21.88;;;4.18;;
35312;SDS011;21425;50.454;30.466;2022-08-21T13:03:53;24.55;;;4.28;;
35312;SDS011;21425;50.454;30.466;2022-08-21T13:06:21;23.90;;;3.53;;
35312;SDS011;21425;50.454;30.466;2022-08-21T13:08:49;23.63;;;4.20;;
35312;SDS011;21425;50.454;30.466;2022-08-21T13:11:22;21.15;;;3.90;;
35312;SDS011;21425;50.454;30.466;2022-08-21T13:13:50;18.73;;;4.00;;
35312;SDS011;21425;50.454;30.466;2022-08-21T13:16:20;19.08;;;4.10;;
35312;SDS011;21425;50.454;30.466;2022-08-21T13:18:57;28.25;;;4.15;;
35312;SDS011;21425;50.454;30.466;2022-08-21T13:21:31;27.88;;;4.43;;
35312;SDS011;21425;50.454;30.466;2022-08-21T13:26:49;24.35;;;3.92;;
35312;SDS011;21425;50.454;30.466;2022-08-21T13:29:16;25.33;;;4.50;;
35312;SDS011;21425;50.454;30.466;2022-08-21T13:31:47;26.40;;;4.65;;
35312;SDS011;21425;50.454;30.466;2022-08-21T13:34:17;22.93;;;4.47;;
35312;SDS011;21425;50.454;30.466;2022-08-21T13:36:44;20.38;;;4.50;;
35312;SDS011;21425;50.454;30.466;2022-08-21T13:39:15;27.52;;;4.60;;
35312;SDS011;21425;50.454;30.466;2022-08-21T13:41:44;20.95;;;4.30;;
35312;SDS011;21425;50.454;30.466;2022-08-21T13:44:21;23.27;;;3.83;;
35312;SDS011;21425;50.454;30.466;2022-08-21T13:46:52;27.60;;;5.25;;
35312;SDS011;21425;50.454;30.466;2022-08-21T13:49:21;19.05;;;5.03;;
35312;SDS011;21425;50.454;30.466;2022-08-21T13:51:53;22.63;;;3.97;;
35312;SDS011;21425;50.454;30.466;2022-08-21T13:54:22;16.75;;;3.70;;
35312;SDS011;21425;50.454;30.466;2022-08-21T13:56:51;21.27;;;4.75;;
35312;SDS011;21425;50.454;30.466;2022-08-21T13:59:50;27.42;;;4.13;;
35312;SDS011;21425;50.454;30.466;2022-08-21T14:02:19;25.48;;;4.03;;
35312;SDS011;21425;50.454;30.466;2022-08-21T14:04:58;20.13;;;5.13;;
35312;SDS011;21425;50.454;30.466;2022-08-21T14:07:28;22.70;;;4.10;;
35312;SDS011;21425;50.454;30.466;2022-08-21T14:09:59;19.27;;;3.78;;
35312;SDS011;21425;50.454;30.466;2022-08-21T14:12:32;20.80;;;4.00;;
35312;SDS011;21425;50.454;30.466;2022-08-21T14:17:38;29.33;;;4.55;;
35312;SDS011;21425;50.454;30.466;2022-08-21T14:20:07;26.80;;;4.38;;
35312;SDS011;21425;50.454;30.466;2022-08-21T14:22:48;22.35;;;4.03;;
35312;SDS011;21425;50.454;30.466;2022-08-21T14:25:14;22.92;;;4.38;;
35312;SDS011;21425;50.454;30.466;2022-08-21T14:27:48;23.63;;;3.83;;
35312;SDS011;21425;50.454;30.466;2022-08-21T14:30:25;37.33;;;4.72;;
35312;SDS011;21425;50.454;30.466;2022-08-21T14:32:52;28.80;;;4.05;;
35312;SDS011;21425;50.454;30.466;2022-08-21T14:35:18;24.23;;;4.45;;
35312;SDS011;21425;50.454;30.466;2022-08-21T14:37:46;20.15;;;4.07;;
35312;SDS011;21425;50.454;30.466;2022-08-21T14:40:12;27.08;;;4.30;;
35312;SDS011;21425;50.454;30.466;2022-08-21T14:42:40;29.55;;;4.75;;
35312;SDS011;21425;50.454;30.466;2022-08-21T14:45:13;19.08;;;3.90;;
35312;SDS011;21425;50.454;30.466;2022-08-21T14:47:40;22.58;;;4.35;;
35312;SDS011;21425;50.454;30.466;2022-08-21T14:50:07;22.00;;;4.20;;
35312;SDS011;21425;50.454;30.466;2022-08-21T14:52:33;23.15;;;4.00;;
35312;SDS011;21425;50.454;30.466;2022-08-21T14:54:59;26.30;;;4.65;;
35312;SDS011;21425;50.454;30.466;2022-08-21T14:57:24;26.10;;;4.15;;
35312;SDS011;21425;50.454;30.466;2022-08-21T14:59:54;21.40;;;4.47;;
35312;SDS011;21425;50.454;30.466;2022-08-21T15:02:19;27.45;;;5.03;;
35312;SDS011;21425;50.454;30.466;2022-08-21T15:04:45;25.17;;;5.10;;
35312;SDS011;21425;50.454;30.466;2022-08-21T15:07:11;26.90;;;5.15;;
35312;SDS011;21425;50.454;30.466;2022-08-21T15:09:36;22.38;;;4.68;;
35312;SDS011;21425;50.454;30.466;2022-08-21T15:12:02;23.75;;;4.85;;
35312;SDS011;21425;50.454;30.466;2022-08-21T15:14:29;24.30;;;4.32;;
35312;SDS011;21425;50.454;30.466;2022-08-21T15:16:57;34.70;;;4.22;;
35312;SDS011;21425;50.454;30.466;2022-08-21T15:19:23;18.52;;;3.78;;
35312;SDS011;21425;50.454;30.466;2022-08-21T15:21:49;27.20;;;4.13;;
35312;SDS011;21425;50.454;30.466;2022-08-21T15:24:15;30.05;;;4.28;;
35312;SDS011;21425;50.454;30.466;2022-08-21T15:26:40;25.35;;;4.32;;
35312;SDS011;21425;50.454;30.466;2022-08-21T15:29:07;28.42;;;4.70;;
35312;SDS011;21425;50.454;30.466;2022-08-21T15:31:33;21.70;;;4.32;;
35312;SDS011;21425;50.454;30.466;2022-08-21T15:34:00;29.48;;;4.07;;
35312;SDS011;21425;50.454;30.466;2022-08-21T15:36:25;28.27;;;3.97;;
35312;SDS011;21425;50.454;30.466;2022-08-21T15:38:51;26.75;;;4.00;;
35312;SDS011;21425;50.454;30.466;2022-08-21T15:41:16;30.15;;;4.78;;
35312;SDS011;21425;50.454;30.466;2022-08-21T15:43:47;24.33;;;5.13;;
35312;SDS011;21425;50.454;30.466;2022-08-21T15:46:15;21.60;;;4.22;;
35312;SDS011;21425;50.454;30.466;2022-08-21T15:48:42;24.20;;;4.55;;
35312;SDS011;21425;50.454;30.466;2022-08-21T15:51:09;26.25;;;4.80;;
35312;SDS011;21425;50.454;30.466;2022-08-21T15:53:35;21.63;;;4.00;;
35312;SDS011;21425;50.454;30.466;2022-08-21T15:56:03;28.20;;;5.10;;
35312;SDS011;21425;50.454;30.466;2022-08-21T15:58:30;24.45;;;4.85;;
35312;SDS011;21425;50.454;30.466;2022-08-21T16:00:59;30.92;;;4.93;;
35312;SDS011;21425;50.454;30.466;2022-08-21T16:03:26;30.52;;;4.47;;